Time;durP1;ratioP1;P1;durP2;ratioP2;P2;SDS_P1;SDS_P2;PMS_P1;PMS_P2;Temp;Humidity;BMP_temperature;BMP_pressure;BME280_temperature;BME280_humidity;BME280_pressure;Samples;Min_cycle;Max_cycle;Signal;HPM_P1;HPM_P2
2021/04/20 00:00:40;;;;;;;10.38;7.13;;;;;;;8.44;73.89;98978.81;5051847;28;20025;-65
2021/04/20 00:03:06;;;;;;;12.95;6.20;;;;;;;8.42;74.84;98978.31;5051194;28;20044;-65
2021/04/20 00:05:31;;;;;;;10.32;6.30;;;;;;;8.54;74.20;98967.31;5033391;28;20486;-66
2021/04/20 00:07:57;;;;;;;8.95;6.18;;;;;;;8.65;73.74;98973.38;5050340;28;20490;-65
2021/04/20 00:10:23;;;;;;;8.27;6.72;;;;;;;8.61;73.62;98971.59;5051417;28;20083;-66
2021/04/20 00:12:49;;;;;;;11.27;8.88;;;;;;;8.65;73.96;98969.75;5051150;28;20029;-66
2021/04/20 00:15:24;;;;;;;12.48;9.32;;;;;;;8.76;73.06;98971.03;5050847;28;20041;-66
2021/04/20 00:17:52;;;;;;;10.38;7.80;;;;;;;8.71;72.96;98976.78;5051051;28;20032;-66
2021/04/20 00:20:18;;;;;;;11.27;7.72;;;;;;;8.70;73.17;98972.38;5050945;28;20517;-66
2021/04/20 00:22:44;;;;;;;9.85;8.38;;;;;;;8.75;73.11;98974.97;5032855;28;20078;-66
2021/04/20 00:25:10;;;;;;;13.45;8.52;;;;;;;8.76;73.28;98971.03;5050689;28;20895;-66
2021/04/20 00:27:36;;;;;;;9.80;7.80;;;;;;;8.81;72.63;98970.84;5050682;28;20025;-67
2021/04/20 00:30:04;;;;;;;13.55;9.05;;;;;;;8.72;73.42;98970.06;5051054;28;20494;-65
2021/04/20 00:32:29;;;;;;;11.85;8.55;;;;;;;8.71;73.28;98968.44;5050476;28;20107;-66
2021/04/20 00:34:55;;;;;;;13.07;8.43;;;;;;;8.79;73.17;98966.75;5050874;28;20041;-65
2021/04/20 00:37:20;;;;;;;25.23;9.85;;;;;;;8.80;72.76;98974.75;5050576;28;20032;-65
2021/04/20 00:39:46;;;;;;;17.33;10.30;;;;;;;8.79;72.91;98975.13;5050941;28;20036;-66
2021/04/20 00:42:11;;;;;;;14.10;8.88;;;;;;;8.78;72.95;98965.91;5050685;28;20102;-65
2021/04/20 00:44:36;;;;;;;16.08;9.27;;;;;;;8.78;73.24;98974.28;5050362;28;20115;-66
2021/04/20 00:47:03;;;;;;;14.65;8.00;;;;;;;8.80;72.63;98973.97;5050561;28;20398;-66
2021/04/20 00:49:29;;;;;;;9.57;6.90;;;;;;;8.90;71.63;98973.59;5050472;28;20037;-65
2021/04/20 00:51:55;;;;;;;7.95;5.93;;;;;;;8.82;71.78;98977.22;5050387;28;20048;-65
2021/04/20 00:54:22;;;;;;;10.18;7.30;;;;;;;8.80;71.81;98979.53;5050516;28;20127;-66
2021/04/20 00:56:48;;;;;;;8.77;6.03;;;;;;;8.79;71.95;98981.50;5050341;28;22116;-65
2021/04/20 00:59:13;;;;;;;10.57;6.28;;;;;;;8.71;71.92;98977.59;5050698;28;20041;-66
2021/04/20 01:01:39;;;;;;;8.02;5.95;;;;;;;8.65;72.34;98981.75;5050028;28;20613;-66
2021/04/20 01:04:09;;;;;;;12.90;6.93;;;;;;;8.72;71.89;98986.78;5050447;28;20411;-65
2021/04/20 01:06:35;;;;;;;9.73;6.87;;;;;;;8.71;71.94;98985.16;5050254;28;20029;-66
2021/04/20 01:09:00;;;;;;;7.57;5.63;;;;;;;8.68;72.11;98983.00;5050221;28;20108;-66
2021/04/20 01:11:27;;;;;;;8.02;5.75;;;;;;;8.60;71.39;98984.69;5050631;28;20044;-66
2021/04/20 01:13:52;;;;;;;7.22;5.80;;;;;;;8.63;71.91;98978.47;5031619;28;20041;-65
2021/04/20 01:16:19;;;;;;;8.40;5.78;;;;;;;8.61;71.59;98988.31;5042758;28;20036;-66
2021/04/20 01:18:45;;;;;;;9.73;5.57;;;;;;;8.62;71.66;98993.53;5032021;28;20109;-66
2021/04/20 01:21:16;;;;;;;7.75;5.25;;;;;;;8.54;72.04;98998.00;5036509;28;20029;-66
2021/04/20 01:24:21;;;;;;;6.70;5.55;;;;;;;8.57;72.00;99000.13;5050077;28;20036;-66
2021/04/20 01:26:47;;;;;;;9.10;5.22;;;;;;;8.45;72.57;99008.34;5048264;28;20586;-66
2021/04/20 01:29:13;;;;;;;6.38;5.30;;;;;;;8.52;71.91;98997.50;5050291;28;20029;-66
2021/04/20 01:31:41;;;;;;;6.93;5.13;;;;;;;8.61;71.10;98982.72;5049779;28;20109;-65
2021/04/20 01:34:07;;;;;;;5.07;3.92;;;;;;;8.54;69.90;99003.56;5032219;28;20061;-65
2021/04/20 01:36:33;;;;;;;4.55;3.75;;;;;;;8.39;70.89;99001.28;5051638;28;20067;-66
2021/04/20 01:38:59;;;;;;;4.68;3.75;;;;;;;8.26;71.59;99006.72;5036560;28;20036;-66
2021/04/20 01:41:29;;;;;;;4.50;3.65;;;;;;;8.33;71.67;99011.00;5036855;28;20036;-66
2021/04/20 01:43:56;;;;;;;4.93;3.67;;;;;;;8.27;71.39;99005.59;5035024;28;20498;-66
2021/04/20 01:46:22;;;;;;;4.38;3.47;;;;;;;8.34;71.86;99012.63;5053959;28;20467;-66
2021/04/20 01:48:49;;;;;;;5.13;3.88;;;;;;;8.28;72.15;99015.56;5053549;28;20568;-65
2021/04/20 01:51:16;;;;;;;5.00;3.85;;;;;;;8.05;71.86;99014.97;5053679;28;20494;-66
2021/04/20 01:53:42;;;;;;;8.40;4.68;;;;;;;8.10;71.93;99014.78;5053570;28;20025;-66
2021/04/20 01:56:10;;;;;;;6.88;4.95;;;;;;;8.11;72.19;99021.19;5053609;28;20029;-66
2021/04/20 01:58:39;;;;;;;7.20;4.47;;;;;;;8.05;72.63;99014.13;5053744;28;20033;-65
2021/04/20 02:01:08;;;;;;;5.23;4.47;;;;;;;8.12;71.74;99018.06;5053589;28;20031;-65
2021/04/20 02:03:34;;;;;;;7.03;4.68;;;;;;;8.18;71.69;99027.06;5015835;28;20034;-65
2021/04/20 02:06:00;;;;;;;5.00;3.72;;;;;;;8.17;71.16;99019.84;5033822;28;20091;-67
2021/04/20 02:08:26;;;;;;;4.90;4.00;;;;;;;8.18;71.53;99024.28;5033614;28;20033;-66
2021/04/20 02:10:52;;;;;;;3.80;3.40;;;;;;;8.11;70.93;99030.34;5015909;28;20096;-65
2021/04/20 02:13:22;;;;;;;5.25;3.90;;;;;;;8.09;71.71;99034.63;5033551;28;20037;-65
2021/04/20 02:15:51;;;;;;;4.55;4.07;;;;;;;8.09;71.14;99029.06;5033967;28;20472;-66
2021/04/20 02:18:20;;;;;;;4.38;3.50;;;;;;;8.10;71.37;99036.25;5033467;28;20487;-65
2021/04/20 02:20:46;;;;;;;4.90;3.88;;;;;;;8.06;70.99;99036.09;5033811;28;20030;-64
2021/04/20 02:23:13;;;;;;;4.18;3.20;;;;;;;8.13;70.50;99035.59;5015319;28;20037;-66
2021/04/20 02:25:39;;;;;;;3.42;2.97;;;;;;;8.10;71.03;99039.84;5015738;28;20034;-65
2021/04/20 02:28:05;;;;;;;5.47;3.85;;;;;;;8.10;70.51;99036.25;5015621;28;20036;-64
2021/04/20 02:30:31;;;;;;;3.45;2.75;;;;;;;8.01;70.74;99039.88;5015643;28;20418;-65
2021/04/20 02:32:56;;;;;;;3.90;2.67;;;;;;;8.10;70.97;99041.84;5033174;28;20473;-66
2021/04/20 02:35:22;;;;;;;3.80;2.30;;;;;;;8.14;70.32;99040.03;5033234;28;20084;-66
2021/04/20 02:37:48;;;;;;;3.50;2.60;;;;;;;8.08;70.17;99044.09;5015698;28;20033;-66
2021/04/20 02:40:22;;;;;;;4.47;3.08;;;;;;;8.07;69.80;99043.31;5033211;28;20030;-66
2021/04/20 02:42:52;;;;;;;3.80;3.10;;;;;;;7.99;70.21;99047.72;5048372;28;20029;-65
2021/04/20 02:45:20;;;;;;;4.40;3.40;;;;;;;7.89;70.28;99045.28;5033211;28;20028;-65
2021/04/20 02:47:50;;;;;;;4.22;3.72;;;;;;;7.95;70.42;99052.31;5032109;28;20099;-65
2021/04/20 02:50:20;;;;;;;6.57;3.97;;;;;;;7.90;70.64;99057.22;5032612;28;20033;-66
2021/04/20 02:52:49;;;;;;;;;;;;;;;7.94;70.37;99053.44;5033705;28;20087;-66
2021/04/20 02:55:16;;;;;;;5.88;3.92;;;;;;;7.71;71.51;99058.38;5032943;28;19964;-65
2021/04/20 02:57:55;;;;;;;3.55;3.00;;;;;;;7.70;71.35;99051.97;5032667;28;20091;-65
2021/04/20 03:00:23;;;;;;;5.18;2.90;;;;;;;7.83;70.92;99058.53;5014934;28;20038;-65
2021/04/20 03:02:52;;;;;;;4.03;2.92;;;;;;;7.84;70.40;99062.13;5046369;28;20079;-66
2021/04/20 03:05:19;;;;;;;3.50;2.75;;;;;;;7.87;71.42;99061.50;5052660;28;20041;-65
2021/04/20 03:07:46;;;;;;;5.10;3.08;;;;;;;7.85;71.15;99063.78;5052390;28;20021;-65
2021/04/20 03:10:14;;;;;;;4.07;3.00;;;;;;;7.81;70.76;99060.84;5052821;28;20056;-66
2021/04/20 03:12:40;;;;;;;3.33;2.92;;;;;;;7.79;70.62;99062.31;5034210;28;20024;-66
2021/04/20 03:15:08;;;;;;;3.42;2.85;;;;;;;7.77;70.78;99065.41;5052606;28;20048;-65
2021/04/20 03:17:34;;;;;;;3.42;3.08;;;;;;;7.80;70.74;99062.00;5052107;28;20029;-65
2021/04/20 03:19:59;;;;;;;3.47;2.78;;;;;;;7.80;70.47;99066.72;5052546;28;20033;-65
2021/04/20 03:22:26;;;;;;;4.72;3.10;;;;;;;7.82;71.05;99068.03;5051964;28;20029;-65
2021/04/20 03:25:07;;;;;;;4.72;3.20;;;;;;;7.87;70.23;99073.44;5052313;28;20392;-66
2021/04/20 03:27:34;;;;;;;5.25;3.92;;;;;;;7.85;70.78;99077.72;5052023;28;20025;-67
2021/04/20 03:30:00;;;;;;;5.28;4.07;;;;;;;7.80;70.37;99078.69;5052120;28;20029;-65
2021/04/20 03:32:26;;;;;;;5.85;4.85;;;;;;;7.84;70.12;99079.66;5051993;28;20594;-66
2021/04/20 03:34:59;;;;;;;7.85;5.45;;;;;;;7.84;70.09;99082.44;5052035;28;20037;-65
2021/04/20 03:37:34;;;;;;;7.07;5.88;;;;;;;7.69;70.48;99080.16;5051962;28;20033;-65
2021/04/20 03:40:02;;;;;;;8.02;5.85;;;;;;;7.62;70.40;99086.19;5052078;28;20448;-65
2021/04/20 03:42:33;;;;;;;6.97;4.95;;;;;;;7.53;70.37;99086.16;5033890;28;20024;-66
2021/04/20 03:45:05;;;;;;;8.48;6.75;;;;;;;7.39;72.09;99088.25;5051906;28;20037;-65
2021/04/20 03:48:03;;;;;;;7.90;6.47;;;;;;;7.36;71.66;99088.91;5033540;28;20035;-67
2021/04/20 03:50:34;;;;;;;12.25;6.38;;;;;;;7.41;71.86;99094.31;5026144;28;20075;-66
2021/04/20 03:53:06;;;;;;;6.00;5.13;;;;;;;7.42;71.69;99095.94;5033591;28;20039;-65
2021/04/20 03:55:33;;;;;;;6.95;5.80;;;;;;;7.43;71.16;99095.63;5051793;28;20037;-65
2021/04/20 03:58:00;;;;;;;11.48;6.88;;;;;;;7.44;71.54;99096.47;5051516;28;20106;-66
2021/04/20 04:00:27;;;;;;;9.45;7.75;;;;;;;7.54;71.12;99098.13;5050566;28;20521;-66
2021/04/20 04:02:54;;;;;;;8.40;6.45;;;;;;;7.61;70.90;99095.69;5044892;28;20056;-65
2021/04/20 04:05:24;;;;;;;7.07;6.10;;;;;;;7.68;70.63;99109.94;5051690;28;20051;-67
2021/04/20 04:07:51;;;;;;;38.17;25.77;;;;;;;7.63;70.67;99109.28;5049912;28;20036;-67
2021/04/20 04:10:18;;;;;;;9.98;7.80;;;;;;;7.68;70.62;99109.13;5051726;28;21094;-67
2021/04/20 04:12:47;;;;;;;6.20;5.60;;;;;;;7.73;70.73;99112.59;5049651;28;20500;-66
2021/04/20 04:15:15;;;;;;;6.63;5.43;;;;;;;7.87;69.81;99120.78;5051538;28;20159;-66
2021/04/20 04:17:44;;;;;;;9.45;6.15;;;;;;;7.89;69.47;99120.47;5051527;28;20032;-65
2021/04/20 04:20:12;;;;;;;8.00;5.53;;;;;;;7.86;70.07;99123.91;5049868;28;20024;-67
2021/04/20 04:22:42;;;;;;;7.20;5.72;;;;;;;7.90;69.38;99126.84;5050876;28;20051;-67
2021/04/20 04:25:13;;;;;;;8.10;5.88;;;;;;;7.87;69.01;99133.91;5051347;28;20029;-66
2021/04/20 04:27:47;;;;;;;8.52;5.50;;;;;;;7.86;69.14;99130.28;5066349;28;20025;-65
2021/04/20 04:30:15;;;;;;;8.20;6.60;;;;;;;7.92;69.07;99125.38;5047116;28;20395;-66
2021/04/20 04:32:43;;;;;;;10.48;6.97;;;;;;;8.13;68.58;99133.09;5041172;28;20040;-65
2021/04/20 04:35:10;;;;;;;10.27;8.57;;;;;;;8.39;68.50;99138.69;5049259;28;20040;-65
2021/04/20 04:37:37;;;;;;;8.25;6.63;;;;;;;8.61;67.16;99133.28;5050758;28;20025;-66
2021/04/20 04:40:07;;;;;;;7.82;5.72;;;;;;;8.82;66.38;99128.66;5050825;28;20540;-66
2021/04/20 04:42:34;;;;;;;6.72;6.03;;;;;;;8.91;66.20;99138.94;5050763;28;20029;-65
2021/04/20 04:45:02;;;;;;;8.05;6.82;;;;;;;8.88;65.48;99134.03;5050735;28;20094;-65
2021/04/20 04:47:28;;;;;;;8.25;6.80;;;;;;;9.01;66.13;99135.81;5050489;28;20052;-66
2021/04/20 04:50:00;;;;;;;8.88;6.40;;;;;;;9.12;64.65;99137.09;5050801;28;20479;-66
2021/04/20 04:52:26;;;;;;;9.80;7.72;;;;;;;9.13;65.12;99138.72;5049326;28;20028;-65
2021/04/20 04:54:52;;;;;;;10.73;7.25;;;;;;;9.17;64.77;99144.47;5050389;28;20574;-65
2021/04/20 04:57:19;;;;;;;8.45;7.07;;;;;;;9.27;65.03;99146.06;5050253;28;20100;-66
2021/04/20 04:59:45;;;;;;;9.70;7.22;;;;;;;9.26;64.02;99153.63;5050283;28;20035;-67
2021/04/20 05:02:11;;;;;;;9.52;7.35;;;;;;;9.27;66.01;99149.69;5043417;28;20479;-66
2021/04/20 05:04:37;;;;;;;8.55;7.60;;;;;;;9.48;63.64;99150.91;5050331;28;20033;-67
2021/04/20 05:07:03;;;;;;;9.18;7.40;;;;;;;9.49;64.84;99156.16;5050081;28;20419;-67
2021/04/20 05:09:29;;;;;;;14.82;10.85;;;;;;;9.47;64.87;99157.66;5050193;28;20033;-66
2021/04/20 05:11:54;;;;;;;16.80;11.50;;;;;;;9.57;65.60;99162.84;5031915;28;20025;-65
2021/04/20 05:14:22;;;;;;;14.35;11.05;;;;;;;9.63;63.71;99150.34;5050330;28;20037;-67
2021/04/20 05:16:49;;;;;;;18.05;9.70;;;;;;;9.53;63.17;99151.53;5032480;28;20049;-65
2021/04/20 05:19:30;;;;;;;21.23;12.40;;;;;;;9.53;65.40;99151.53;5031421;28;20541;-66
2021/04/20 05:21:59;;;;;;;22.90;15.07;;;;;;;9.58;65.37;99147.75;5032187;28;20036;-65
2021/04/20 05:24:25;;;;;;;25.45;15.05;;;;;;;9.64;65.01;99162.34;5050091;28;20047;-70
2021/04/20 05:26:51;;;;;;;15.85;11.43;;;;;;;9.67;64.27;99161.66;5049827;28;20028;-63
2021/04/20 05:29:18;;;;;;;19.73;12.43;;;;;;;9.64;65.24;99165.13;5032291;28;20041;-65
2021/04/20 05:31:44;;;;;;;16.45;11.73;;;;;;;9.59;64.60;99168.09;5049899;28;20462;-67
2021/04/20 05:34:10;;;;;;;16.00;11.30;;;;;;;9.75;65.35;99174.75;5050103;28;20043;-69
2021/04/20 05:36:37;;;;;;;14.82;11.18;;;;;;;9.93;64.00;99186.66;5049754;28;20025;-66
2021/04/20 05:39:07;;;;;;;16.25;12.52;;;;;;;10.03;63.64;99173.47;5050146;28;20368;-65
2021/04/20 05:41:34;;;;;;;17.58;10.93;;;;;;;9.83;62.75;99181.44;5031901;28;20048;-66
2021/04/20 05:44:03;;;;;;;21.38;13.27;;;;;;;9.67;63.80;99181.19;5031885;28;20410;-66
2021/04/20 05:46:28;;;;;;;15.75;10.30;;;;;;;9.71;64.24;99190.53;5031691;28;20039;-68
2021/04/20 05:48:55;;;;;;;24.25;14.30;;;;;;;9.63;64.02;99185.84;5031382;28;20029;-65
2021/04/20 05:51:23;;;;;;;17.42;11.27;;;;;;;9.52;64.78;99194.56;5049719;28;20100;-68
2021/04/20 05:53:51;;;;;;;14.82;11.43;;;;;;;9.53;65.02;99195.38;5048654;28;20025;-68
2021/04/20 05:56:18;;;;;;;20.67;12.75;;;;;;;9.58;66.08;99198.00;5030280;28;20041;-66
2021/04/20 05:58:44;;;;;;;13.80;10.85;;;;;;;9.65;65.61;99192.72;5030932;28;20021;-66
2021/04/20 06:01:10;;;;;;;13.45;9.20;;;;;;;9.59;63.28;99204.38;5030816;28;20564;-64
2021/04/20 06:03:39;;;;;;;12.60;10.05;;;;;;;9.79;63.11;99186.09;5043630;28;20021;-67
2021/04/20 06:06:07;;;;;;;15.40;9.55;;;;;;;10.01;63.99;99195.31;5038933;28;20076;-68
2021/04/20 06:08:34;;;;;;;11.07;8.88;;;;;;;10.24;62.35;99196.63;5049678;28;20107;-68
2021/04/20 06:11:02;;;;;;;15.43;10.60;;;;;;;10.50;62.30;99192.88;5045169;28;20116;-67
2021/04/20 06:13:27;;;;;;;13.00;9.90;;;;;;;10.58;59.86;99188.38;5040778;28;20032;-66
2021/04/20 06:15:54;;;;;;;19.45;11.95;;;;;;;10.52;60.11;99196.16;5028747;28;20235;-67
2021/04/20 06:18:20;;;;;;;17.60;12.30;;;;;;;10.13;63.24;99206.56;5027973;28;20057;-67
2021/04/20 06:20:48;;;;;;;17.10;11.73;;;;;;;10.20;62.34;99201.28;5045408;28;20033;-66
2021/04/20 06:23:14;;;;;;;15.55;11.73;;;;;;;10.20;62.55;99201.28;5050493;28;20048;-67
2021/04/20 06:25:40;;;;;;;18.50;13.05;;;;;;;10.26;62.35;99199.09;5035836;28;20067;-67
2021/04/20 06:28:08;;;;;;;21.50;14.38;;;;;;;10.38;63.56;99204.78;5053196;28;20498;-69
2021/04/20 06:30:34;;;;;;;22.45;15.02;;;;;;;10.31;63.37;99198.09;5053558;28;20497;-64
2021/04/20 06:32:59;;;;;;;28.17;15.73;;;;;;;10.32;64.22;99203.34;5052879;28;20025;-67
2021/04/20 06:35:25;;;;;;;23.73;16.05;;;;;;;10.37;63.12;99199.50;5053215;28;20044;-69
2021/04/20 06:37:52;;;;;;;38.13;23.75;;;;;;;10.25;63.03;99206.66;5052514;28;20032;-68
2021/04/20 06:40:26;;;;;;;29.70;18.92;;;;;;;10.40;63.76;99202.44;5048648;28;20033;-69
2021/04/20 06:42:55;;;;;;;26.42;17.60;;;;;;;10.36;62.87;99203.47;5043838;28;20082;-67
2021/04/20 06:45:30;;;;;;;29.08;18.95;;;;;;;10.32;63.53;99205.31;5052524;28;20562;-69
2021/04/20 06:48:19;;;;;;;26.98;16.70;;;;;;;10.33;63.93;99196.59;5052465;28;20111;-66
2021/04/20 06:50:47;;;;;;;22.60;14.77;;;;;;;10.18;62.77;99200.81;5036895;28;20124;-67
2021/04/20 06:53:40;;;;;;;21.48;15.55;;;;;;;10.32;64.67;99208.09;5034536;28;20032;-66
2021/04/20 06:56:34;;;;;;;22.70;15.80;;;;;;;10.29;63.21;99219.97;5046477;28;20082;-67
2021/04/20 06:59:26;;;;;;;24.50;16.27;;;;;;;10.34;64.40;99217.81;5034524;28;20040;-70
2021/04/20 07:02:10;;;;;;;25.90;17.65;;;;;;;10.40;64.12;99226.81;5034820;28;20132;-65
2021/04/20 07:04:41;;;;;;;27.13;16.33;;;;;;;10.38;64.17;99229.94;5032288;28;20040;-68
2021/04/20 07:07:32;;;;;;;25.80;14.23;;;;;;;10.32;63.54;99230.47;5052282;28;20132;-68
2021/04/20 07:10:04;;;;;;;29.02;15.98;;;;;;;10.30;62.58;99228.00;5052468;28;20048;-67
2021/04/20 07:12:33;;;;;;;21.80;15.20;;;;;;;10.47;61.82;99231.88;5034498;28;20154;-68
2021/04/20 07:15:02;;;;;;;16.15;13.07;;;;;;;10.43;61.93;99231.75;5052477;28;20029;-68
2021/04/20 07:17:44;;;;;;;24.30;15.68;;;;;;;10.25;61.41;99234.59;5034023;28;20025;-66
2021/04/20 07:20:09;;;;;;;22.52;14.43;;;;;;;10.32;62.11;99228.50;5052464;28;20057;-63
2021/04/20 07:23:13;;;;;;;21.48;15.52;;;;;;;10.59;61.21;99229.16;5051897;28;20107;-69
2021/04/20 07:26:07;;;;;;;22.23;14.98;;;;;;;10.94;62.49;99231.66;4980573;28;20528;-68
2021/04/20 07:28:45;;;;;;;20.27;14.77;;;;;;;11.30;62.23;99234.91;4972526;28;20039;-67
2021/04/20 07:31:44;;;;;;;20.25;13.27;;;;;;;11.60;58.85;99236.75;5033472;28;20131;-67
2021/04/20 07:34:28;;;;;;;17.30;13.45;;;;;;;11.86;57.24;99233.63;5042003;28;20029;-68
2021/04/20 07:37:35;;;;;;;18.75;11.57;;;;;;;11.59;55.39;99229.50;5030570;28;20414;-67
2021/04/20 07:40:22;;;;;;;17.98;13.35;;;;;;;11.66;56.56;99243.75;5026973;28;20524;-69
2021/04/20 07:43:16;;;;;;;16.67;14.10;;;;;;;11.66;57.38;99241.75;5051302;28;20075;-69
2021/04/20 07:45:52;;;;;;;23.55;14.25;;;;;;;11.84;56.97;99238.75;5035664;28;20397;-69
2021/04/20 07:48:30;;;;;;;16.35;11.93;;;;;;;11.74;56.57;99237.22;5033219;28;20513;-72
2021/04/20 07:50:59;;;;;;;15.10;11.52;;;;;;;11.59;55.07;99252.75;5033788;28;20033;-72
2021/04/20 07:53:49;;;;;;;18.35;14.85;;;;;;;11.74;58.82;99256.03;5051957;28;20102;-69
2021/04/20 07:56:27;;;;;;;25.27;13.90;;;;;;;12.08;58.12;99256.78;5051596;28;20035;-70
2021/04/20 07:58:56;;;;;;;19.42;13.23;;;;;;;12.20;55.02;99255.94;5051181;28;20044;-70
2021/04/20 08:01:36;;;;;;;14.02;11.55;;;;;;;12.26;53.21;99250.91;5051075;28;20021;-70
2021/04/20 08:04:15;;;;;;;19.55;12.40;;;;;;;12.45;52.73;99251.16;5045287;28;20044;-70
2021/04/20 08:06:44;;;;;;;16.70;12.88;;;;;;;12.36;54.03;99251.25;5048477;28;20032;-70
2021/04/20 08:09:17;;;;;;;18.05;14.60;;;;;;;12.63;56.48;99250.88;5045329;28;20061;-70
2021/04/20 08:11:55;;;;;;;18.15;12.57;;;;;;;12.55;50.01;99252.63;5048351;28;20079;-70
2021/04/20 08:14:33;;;;;;;18.75;15.30;;;;;;;12.46;53.11;99257.56;5022697;28;20112;-68
2021/04/20 08:17:11;;;;;;;15.73;11.65;;;;;;;12.19;50.49;99269.16;5050289;28;20078;-71
2021/04/20 08:19:48;;;;;;;17.08;13.45;;;;;;;12.57;52.06;99260.72;5048769;28;20513;-71
2021/04/20 08:22:16;;;;;;;15.77;12.82;;;;;;;12.72;51.39;99250.72;5032393;28;20028;-74
2021/04/20 08:25:03;;;;;;;15.30;11.43;;;;;;;12.69;48.91;99251.44;5016258;28;20041;-70
2021/04/20 08:28:02;;;;;;;17.08;13.02;;;;;;;12.77;50.10;99265.31;5010125;28;20052;-71
2021/04/20 08:30:49;;;;;;;13.15;10.52;;;;;;;12.98;48.26;99255.09;5013771;28;20036;-71
2021/04/20 08:33:18;;;;;;;17.77;14.48;;;;;;;13.34;49.76;99256.91;5011041;28;20022;-70
2021/04/20 08:35:47;;;;;;;17.95;13.38;;;;;;;13.46;47.78;99263.69;5011140;28;20110;-70
2021/04/20 08:38:39;;;;;;;11.80;9.15;;;;;;;13.36;47.20;99261.34;5028801;28;20021;-70
2021/04/20 08:41:08;;;;;;;27.10;16.60;;;;;;;13.38;47.98;99259.81;5029085;28;20133;-71
2021/04/20 08:43:34;;;;;;;12.75;9.77;;;;;;;13.26;44.02;99257.88;5024956;28;20144;-71
2021/04/20 08:46:18;;;;;;;16.08;12.65;;;;;;;13.21;45.62;99263.78;5019171;28;20034;-70
2021/04/20 08:49:09;;;;;;;20.00;12.88;;;;;;;13.19;46.09;99257.69;5024461;28;20028;-75
2021/04/20 08:51:53;;;;;;;16.30;12.70;;;;;;;13.42;47.51;99252.31;5022407;28;20041;-70
2021/04/20 08:54:37;;;;;;;14.68;12.13;;;;;;;13.55;44.42;99261.53;5027508;28;20045;-72
2021/04/20 08:57:39;;;;;;;17.00;13.75;;;;;;;13.42;46.57;99257.13;5028416;28;20072;-70
2021/04/20 09:00:09;;;;;;;15.05;12.13;;;;;;;13.36;42.89;99250.94;5008612;28;20038;-67
2021/04/20 09:02:42;;;;;;;15.13;11.13;;;;;;;13.37;42.82;99261.00;5038660;28;20045;-69
2021/04/20 09:05:42;;;;;;;13.52;11.45;;;;;;;13.47;44.84;99259.69;5043031;28;20033;-69
2021/04/20 09:08:31;;;;;;;20.30;13.65;;;;;;;13.42;44.01;99257.13;5039776;28;20032;-70
2021/04/20 09:11:02;;;;;;;13.93;11.37;;;;;;;13.51;41.96;99254.97;5032634;28;20044;-70
2021/04/20 09:13:31;;;;;;;16.33;9.18;;;;;;;13.23;41.89;99264.22;5050381;28;20043;-69
2021/04/20 09:16:04;;;;;;;14.80;12.68;;;;;;;13.35;44.67;99266.19;5050541;28;20044;-69
2021/04/20 09:18:35;;;;;;;13.60;12.13;;;;;;;13.27;43.89;99253.94;5050354;28;20509;-71
2021/04/20 09:21:09;;;;;;;14.05;11.85;;;;;;;13.59;44.65;99251.19;5050187;28;20065;-70
2021/04/20 09:24:11;;;;;;;12.10;9.75;;;;;;;13.47;42.41;99259.69;5028775;28;20144;-70
2021/04/20 09:26:57;;;;;;;15.57;11.30;;;;;;;13.50;41.04;99253.34;5030199;28;20039;-69
2021/04/20 09:29:32;;;;;;;14.82;11.27;;;;;;;13.90;43.30;99258.00;5018994;28;20045;-70
2021/04/20 09:32:01;;;;;;;17.17;11.43;;;;;;;13.94;41.20;99257.28;5032058;28;20406;-70
2021/04/20 09:34:36;;;;;;;12.73;10.45;;;;;;;13.79;41.48;99250.47;5049974;28;20250;-69
2021/04/20 09:37:03;;;;;;;13.95;12.20;;;;;;;13.70;44.68;99248.66;5031776;28;20025;-69
2021/04/20 09:39:34;;;;;;;14.10;11.60;;;;;;;14.04;42.22;99239.88;5050196;28;20487;-72
2021/04/20 09:42:01;;;;;;;;;;;;;;;14.26;43.63;99251.63;5032493;28;20106;-73
2021/04/20 09:44:32;;;;;;;12.80;9.27;;;;;;;14.09;40.71;99253.63;5038977;28;19925;-71
2021/04/20 09:47:25;;;;;;;14.63;10.75;;;;;;;14.10;40.63;99249.63;5045654;28;20028;-72
2021/04/20 09:50:28;;;;;;;13.02;10.57;;;;;;;14.27;40.62;99248.44;5041488;28;20352;-73
2021/04/20 09:53:23;;;;;;;12.50;9.27;;;;;;;14.26;38.60;99244.00;5043369;28;20033;-74
2021/04/20 09:55:58;;;;;;;12.30;10.63;;;;;;;14.13;41.43;99245.28;5031980;28;20502;-74
2021/04/20 09:58:25;;;;;;;13.07;10.50;;;;;;;14.14;40.24;99256.19;5050191;28;20536;-74
2021/04/20 10:00:51;;;;;;;13.55;10.43;;;;;;;14.14;39.45;99252.53;5053702;28;20032;-74
2021/04/20 10:03:54;;;;;;;14.73;10.70;;;;;;;14.34;38.85;99247.78;5036611;28;20127;-74
2021/04/20 10:07:21;;;;;;;12.50;9.73;;;;;;;14.29;39.16;99248.88;5023128;28;20526;-74
2021/04/20 10:09:52;;;;;;;11.32;9.50;;;;;;;14.59;40.66;99248.38;4979629;28;20559;-74
2021/04/20 10:12:23;;;;;;;16.90;12.27;;;;;;;14.76;42.53;99239.91;5030471;28;20037;-74
2021/04/20 10:15:16;;;;;;;11.60;10.13;;;;;;;14.88;40.16;99236.94;5032433;28;20536;-74
2021/04/20 10:17:57;;;;;;;14.05;10.75;;;;;;;14.96;39.85;99238.75;5047401;28;20038;-74
2021/04/20 10:20:30;;;;;;;13.32;10.00;;;;;;;14.52;39.10;99245.38;5032970;28;20094;-74
2021/04/20 10:22:55;;;;;;;11.55;10.23;;;;;;;14.53;39.26;99241.38;5032839;28;20052;-75
2021/04/20 10:25:36;;;;;;;13.50;9.98;;;;;;;14.62;41.16;99246.00;5014411;28;20570;-74
2021/04/20 10:28:15;;;;;;;12.20;10.77;;;;;;;14.82;40.70;99235.59;5017888;28;20037;-74
2021/04/20 10:30:45;;;;;;;12.52;10.93;;;;;;;15.20;38.67;99238.78;5033409;28;20112;-74
2021/04/20 10:33:12;;;;;;;;;;;;;;;15.08;36.46;99242.56;5015686;28;20104;-74
2021/04/20 10:35:39;;;;;;;13.35;10.75;;;;;;;15.02;39.18;99245.69;5014772;28;19955;-74
2021/04/20 10:38:14;;;;;;;15.55;12.10;;;;;;;15.38;40.34;99230.69;5014966;28;20056;-74
2021/04/20 10:40:44;;;;;;;16.08;11.82;;;;;;;15.27;41.57;99230.50;5032235;28;20056;-75
2021/04/20 10:43:19;;;;;;;17.05;13.23;;;;;;;15.35;40.81;99231.44;5014286;28;20042;-74
2021/04/20 10:45:46;;;;;;;15.25;12.00;;;;;;;15.40;38.20;99234.78;5031915;28;20372;-72
2021/04/20 10:48:20;;;;;;;19.02;11.63;;;;;;;15.20;37.75;99239.59;5014789;28;20507;-72
2021/04/20 10:50:49;;;;;;;17.60;12.60;;;;;;;15.52;38.75;99230.16;5031522;28;20029;-72
2021/04/20 10:53:33;;;;;;;21.15;14.20;;;;;;;15.75;40.21;99232.97;5021546;28;20391;-72
2021/04/20 10:56:05;;;;;;;14.88;12.50;;;;;;;16.12;37.24;99234.41;5016105;28;20038;-72
2021/04/20 10:58:32;;;;;;;15.70;13.25;;;;;;;16.04;36.83;99232.66;5027543;28;20038;-72
2021/04/20 11:00:59;;;;;;;14.40;10.25;;;;;;;15.60;34.69;99237.53;5002333;28;20473;-71
2021/04/20 11:03:35;;;;;;;17.58;12.82;;;;;;;15.37;35.90;99234.69;5046954;28;20140;-72
2021/04/20 11:16:10;;;;;;;15.88;13.30;;;;;;;15.18;36.63;99239.16;5049497;28;20052;-68
2021/04/20 11:18:47;;;;;;;16.75;14.20;;;;;;;15.47;36.70;99234.09;5050253;28;20611;-71
2021/04/20 11:21:19;;;;;;;24.10;17.95;;;;;;;15.88;38.27;99227.13;5049697;28;20494;-67
2021/04/20 11:23:59;;;;;;;16.40;12.90;;;;;;;15.96;36.22;99226.09;5049994;28;20036;-68
2021/04/20 11:26:32;;;;;;;21.02;15.65;;;;;;;15.66;38.17;99223.94;5049876;28;20021;-67
2021/04/20 11:29:01;;;;;;;17.70;13.82;;;;;;;15.40;39.77;99231.94;5049932;28;20473;-67
2021/04/20 11:31:33;;;;;;;19.65;15.20;;;;;;;15.57;37.93;99225.00;5050493;28;20491;-67
2021/04/20 11:34:13;;;;;;;14.70;12.63;;;;;;;15.39;37.66;99230.31;5051366;28;20059;-71
2021/04/20 11:36:45;;;;;;;18.17;14.45;;;;;;;15.36;38.09;99225.41;5050922;28;20040;-71
2021/04/20 11:39:16;;;;;;;16.27;13.23;;;;;;;15.43;37.74;99231.19;5051867;28;20486;-70
2021/04/20 11:41:54;;;;;;;16.77;14.55;;;;;;;15.43;39.23;99233.19;5048899;28;20031;-71
2021/04/20 11:44:20;;;;;;;19.77;14.07;;;;;;;15.52;37.70;99221.69;5044593;28;20029;-71
2021/04/20 11:46:49;;;;;;;16.33;14.63;;;;;;;15.58;37.05;99221.00;5045750;28;20033;-69
2021/04/20 11:49:27;;;;;;;17.05;12.52;;;;;;;15.67;37.28;99215.09;5046089;28;20068;-70
2021/04/20 11:51:57;;;;;;;16.38;13.77;;;;;;;15.81;35.80;99223.00;5047038;28;20394;-71
2021/04/20 11:54:29;;;;;;;20.25;15.60;;;;;;;16.16;37.42;99212.72;5046611;28;20036;-72
2021/04/20 11:57:00;;;;;;;19.27;14.18;;;;;;;16.16;35.04;99218.34;5047366;28;20044;-69
2021/04/20 11:59:27;;;;;;;29.73;17.30;;;;;;;15.95;34.67;99213.97;5049113;28;20170;-71
2021/04/20 12:01:54;;;;;;;22.88;17.17;;;;;;;15.70;36.17;99208.72;5051100;28;20052;-68